sensor_id;sensor_type;location;lat;lon;timestamp;pressure;altitude;pressure_sealevel;temperature;humidity
4705;BME280;2366;51.332;6.610;2022-12-07T00:01:25;101612.22;;;8.21;86.55
4705;BME280;2366;51.332;6.610;2022-12-07T00:03:52;101612.19;;;8.23;86.30
4705;BME280;2366;51.332;6.610;2022-12-07T00:06:19;101616.56;;;8.24;85.99
4705;BME280;2366;51.332;6.610;2022-12-07T00:08:46;101613.78;;;8.27;86.29
4705;BME280;2366;51.332;6.610;2022-12-07T00:11:17;101611.28;;;8.24;86.25
4705;BME280;2366;51.332;6.610;2022-12-07T00:13:43;101615.63;;;8.25;86.36
4705;BME280;2366;51.332;6.610;2022-12-07T00:16:17;101611.94;;;8.29;86.26
4705;BME280;2366;51.332;6.610;2022-12-07T00:18:43;101606.72;;;8.28;85.79
4705;BME280;2366;51.332;6.610;2022-12-07T00:21:33;101613.03;;;8.23;85.90
4705;BME280;2366;51.332;6.610;2022-12-07T00:23:59;101618.09;;;8.30;85.89
4705;BME280;2366;51.332;6.610;2022-12-07T00:26:35;101607.66;;;8.27;85.67
4705;BME280;2366;51.332;6.610;2022-12-07T00:29:06;101609.34;;;8.28;85.51
4705;BME280;2366;51.332;6.610;2022-12-07T00:31:35;101605.00;;;8.27;85.48
4705;BME280;2366;51.332;6.610;2022-12-07T00:34:06;101603.41;;;8.22;85.13
4705;BME280;2366;51.332;6.610;2022-12-07T00:36:32;101603.34;;;8.24;85.52
4705;BME280;2366;51.332;6.610;2022-12-07T00:38:59;101603.28;;;8.26;85.16
4705;BME280;2366;51.332;6.610;2022-12-07T00:41:28;101612.13;;;8.25;85.38
4705;BME280;2366;51.332;6.610;2022-12-07T00:43:54;101606.84;;;8.25;85.18
4705;BME280;2366;51.332;6.610;2022-12-07T00:46:20;101604.06;;;8.28;85.23
4705;BME280;2366;51.332;6.610;2022-12-07T00:48:47;101594.44;;;8.27;85.60
4705;BME280;2366;51.332;6.610;2022-12-07T00:51:14;101593.63;;;8.25;85.36
4705;BME280;2366;51.332;6.610;2022-12-07T00:53:40;101593.56;;;8.26;85.60
4705;BME280;2366;51.332;6.610;2022-12-07T00:56:07;101589.38;;;8.20;84.68
4705;BME280;2366;51.332;6.610;2022-12-07T00:58:33;101584.19;;;8.17;84.47
4705;BME280;2366;51.332;6.610;2022-12-07T01:01:00;101598.16;;;8.21;85.29
4705;BME280;2366;51.332;6.610;2022-12-07T01:03:26;101587.59;;;8.21;84.86
4705;BME280;2366;51.332;6.610;2022-12-07T01:05:54;101594.66;;;8.20;84.67
4705;BME280;2366;51.332;6.610;2022-12-07T01:08:20;101595.47;;;8.22;85.13
4705;BME280;2366;51.332;6.610;2022-12-07T01:10:45;101597.09;;;8.27;85.56
4705;BME280;2366;51.332;6.610;2022-12-07T01:13:11;101593.41;;;8.31;85.10
4705;BME280;2366;51.332;6.610;2022-12-07T01:15:40;101592.47;;;8.32;84.95
4705;BME280;2366;51.332;6.610;2022-12-07T01:18:06;101583.78;;;8.28;84.99
4705;BME280;2366;51.332;6.610;2022-12-07T01:20:31;101584.09;;;8.20;85.15
4705;BME280;2366;51.332;6.610;2022-12-07T01:22:57;101585.13;;;8.16;84.47
4705;BME280;2366;51.332;6.610;2022-12-07T01:25:22;101584.72;;;8.03;84.48
4705;BME280;2366;51.332;6.610;2022-12-07T01:27:47;101573.75;;;7.91;84.15
4705;BME280;2366;51.332;6.610;2022-12-07T01:30:13;101577.75;;;7.77;84.05
4705;BME280;2366;51.332;6.610;2022-12-07T01:32:38;101582.56;;;7.66;84.03
4705;BME280;2366;51.332;6.610;2022-12-07T01:35:04;101575.81;;;7.57;84.31
4705;BME280;2366;51.332;6.610;2022-12-07T01:37:37;101587.44;;;7.52;83.79
4705;BME280;2366;51.332;6.610;2022-12-07T01:40:05;101587.66;;;7.46;84.68
4705;BME280;2366;51.332;6.610;2022-12-07T01:42:31;101591.31;;;7.41;84.37
4705;BME280;2366;51.332;6.610;2022-12-07T01:47:41;101593.91;;;7.43;85.08
4705;BME280;2366;51.332;6.610;2022-12-07T01:50:08;101593.75;;;7.48;84.53
4705;BME280;2366;51.332;6.610;2022-12-07T01:52:35;101588.47;;;7.48;84.79
4705;BME280;2366;51.332;6.610;2022-12-07T01:55:06;101592.06;;;7.45;85.25
4705;BME280;2366;51.332;6.610;2022-12-07T01:57:34;101589.41;;;7.47;85.44
4705;BME280;2366;51.332;6.610;2022-12-07T02:00:03;101589.28;;;7.50;85.03
4705;BME280;2366;51.332;6.610;2022-12-07T02:02:35;101586.63;;;7.50;84.59
4705;BME280;2366;51.332;6.610;2022-12-07T02:05:04;101579.72;;;7.46;85.00
4705;BME280;2366;51.332;6.610;2022-12-07T02:07:32;101581.56;;;7.44;85.18
4705;BME280;2366;51.332;6.610;2022-12-07T02:10:22;101578.06;;;7.43;85.26
4705;BME280;2366;51.332;6.610;2022-12-07T02:12:55;101574.56;;;7.43;84.82
4705;BME280;2366;51.332;6.610;2022-12-07T02:15:24;101572.78;;;7.43;85.15
4705;BME280;2366;51.332;6.610;2022-12-07T02:18:21;101575.38;;;7.45;84.84
4705;BME280;2366;51.332;6.610;2022-12-07T02:28:30;101576.88;;;7.52;84.99
4705;BME280;2366;51.332;6.610;2022-12-07T02:31:01;101570.75;;;7.51;85.10
4705;BME280;2366;51.332;6.610;2022-12-07T02:33:43;101576.72;;;7.56;85.17
4705;BME280;2366;51.332;6.610;2022-12-07T02:36:18;101585.28;;;7.63;85.10
4705;BME280;2366;51.332;6.610;2022-12-07T02:39:01;101579.78;;;7.69;85.49
4705;BME280;2366;51.332;6.610;2022-12-07T02:41:33;101574.63;;;7.66;85.18
4705;BME280;2366;51.332;6.610;2022-12-07T02:44:09;101580.78;;;7.67;85.22
4705;BME280;2366;51.332;6.610;2022-12-07T02:46:44;101576.47;;;7.64;84.67
4705;BME280;2366;51.332;6.610;2022-12-07T02:49:12;101576.50;;;7.63;84.81
4705;BME280;2366;51.332;6.610;2022-12-07T02:51:43;101571.19;;;7.64;84.95
4705;BME280;2366;51.332;6.610;2022-12-07T02:54:12;101568.06;;;7.53;84.41
4705;BME280;2366;51.332;6.610;2022-12-07T03:04:52;101580.81;;;7.13;83.92
4705;BME280;2366;51.332;6.610;2022-12-07T03:07:32;101574.03;;;7.06;84.54
4705;BME280;2366;51.332;6.610;2022-12-07T03:15:39;101579.44;;;7.03;84.31
4705;BME280;2366;51.332;6.610;2022-12-07T03:18:07;101584.44;;;7.11;84.91
4705;BME280;2366;51.332;6.610;2022-12-07T03:20:36;101585.25;;;7.13;85.62
4705;BME280;2366;51.332;6.610;2022-12-07T03:23:05;101578.88;;;7.20;85.12
4705;BME280;2366;51.332;6.610;2022-12-07T03:25:35;101577.13;;;7.19;84.71
4705;BME280;2366;51.332;6.610;2022-12-07T03:28:05;101574.69;;;7.13;84.59
4705;BME280;2366;51.332;6.610;2022-12-07T03:30:49;101572.25;;;7.07;84.24
4705;BME280;2366;51.332;6.610;2022-12-07T03:33:31;101575.25;;;6.96;83.77
4705;BME280;2366;51.332;6.610;2022-12-07T03:36:09;101573.75;;;6.87;83.99
4705;BME280;2366;51.332;6.610;2022-12-07T03:38:49;101575.59;;;6.85;83.96
4705;BME280;2366;51.332;6.610;2022-12-07T03:41:25;101578.22;;;6.85;83.94
4705;BME280;2366;51.332;6.610;2022-12-07T03:43:54;101572.38;;;6.77;83.85
4705;BME280;2366;51.332;6.610;2022-12-07T03:49:30;101564.38;;;6.50;83.55
4705;BME280;2366;51.332;6.610;2022-12-07T03:54:56;101571.28;;;6.54;84.60
4705;BME280;2366;51.332;6.610;2022-12-07T03:57:25;101582.28;;;6.69;84.99
4705;BME280;2366;51.332;6.610;2022-12-07T03:59:51;101580.97;;;6.82;84.93
4705;BME280;2366;51.332;6.610;2022-12-07T04:02:18;101579.78;;;6.92;84.98
4705;BME280;2366;51.332;6.610;2022-12-07T04:04:45;101568.22;;;6.96;85.35
4705;BME280;2366;51.332;6.610;2022-12-07T04:07:10;101573.19;;;7.06;84.79
4705;BME280;2366;51.332;6.610;2022-12-07T04:09:36;101571.25;;;7.11;84.34
4705;BME280;2366;51.332;6.610;2022-12-07T04:12:01;101565.88;;;7.14;84.89
4705;BME280;2366;51.332;6.610;2022-12-07T04:14:27;101575.31;;;7.21;84.44
4705;BME280;2366;51.332;6.610;2022-12-07T04:16:55;101573.59;;;7.20;84.76
4705;BME280;2366;51.332;6.610;2022-12-07T04:19:24;101572.78;;;7.18;84.23
4705;BME280;2366;51.332;6.610;2022-12-07T04:21:49;101578.75;;;7.23;84.94
4705;BME280;2366;51.332;6.610;2022-12-07T04:24:15;101577.78;;;7.26;84.56
4705;BME280;2366;51.332;6.610;2022-12-07T04:26:41;101575.34;;;7.19;84.39
4705;BME280;2366;51.332;6.610;2022-12-07T04:29:08;101570.84;;;7.23;83.83
4705;BME280;2366;51.332;6.610;2022-12-07T04:31:34;101569.09;;;7.22;84.19
4705;BME280;2366;51.332;6.610;2022-12-07T04:33:59;101567.38;;;7.21;84.14
4705;BME280;2366;51.332;6.610;2022-12-07T04:36:25;101563.81;;;7.22;84.52
4705;BME280;2366;51.332;6.610;2022-12-07T04:38:53;101557.78;;;7.20;83.84
4705;BME280;2366;51.332;6.610;2022-12-07T04:41:18;101549.84;;;7.20;84.03
4705;BME280;2366;51.332;6.610;2022-12-07T04:43:44;101555.06;;;7.22;83.88
4705;BME280;2366;51.332;6.610;2022-12-07T04:46:09;101548.94;;;7.21;83.78
4705;BME280;2366;51.332;6.610;2022-12-07T04:48:34;101555.13;;;7.20;83.88
4705;BME280;2366;51.332;6.610;2022-12-07T04:51:00;101558.66;;;7.19;83.56
4705;BME280;2366;51.332;6.610;2022-12-07T04:53:25;101553.72;;;7.10;82.95
4705;BME280;2366;51.332;6.610;2022-12-07T04:55:50;101550.34;;;7.05;83.24
4705;BME280;2366;51.332;6.610;2022-12-07T04:58:16;101561.13;;;6.98;83.06
4705;BME280;2366;51.332;6.610;2022-12-07T05:00:41;101561.31;;;6.92;82.75
4705;BME280;2366;51.332;6.610;2022-12-07T05:03:07;101560.53;;;6.89;82.86
4705;BME280;2366;51.332;6.610;2022-12-07T05:05:32;101561.47;;;6.88;83.16
4705;BME280;2366;51.332;6.610;2022-12-07T05:07:58;101559.53;;;6.93;83.64
4705;BME280;2366;51.332;6.610;2022-12-07T05:10:23;101560.97;;;7.03;84.07
4705;BME280;2366;51.332;6.610;2022-12-07T05:12:49;101561.50;;;7.13;83.41
4705;BME280;2366;51.332;6.610;2022-12-07T05:15:15;101555.13;;;7.20;83.42
4705;BME280;2366;51.332;6.610;2022-12-07T05:17:41;101561.16;;;7.24;83.49
4705;BME280;2366;51.332;6.610;2022-12-07T05:20:07;101561.06;;;7.27;83.41
4705;BME280;2366;51.332;6.610;2022-12-07T05:22:33;101560.09;;;7.29;83.12
4705;BME280;2366;51.332;6.610;2022-12-07T05:24:59;101554.69;;;7.32;83.30
4705;BME280;2366;51.332;6.610;2022-12-07T05:27:24;101559.88;;;7.35;83.22
4705;BME280;2366;51.332;6.610;2022-12-07T05:29:50;101556.22;;;7.39;83.21
4705;BME280;2366;51.332;6.610;2022-12-07T05:32:16;101554.50;;;7.38;82.79
4705;BME280;2366;51.332;6.610;2022-12-07T05:34:41;101560.72;;;7.36;82.70
4705;BME280;2366;51.332;6.610;2022-12-07T05:37:07;101552.88;;;7.34;82.77
4705;BME280;2366;51.332;6.610;2022-12-07T05:39:32;101556.31;;;7.36;82.77
4705;BME280;2366;51.332;6.610;2022-12-07T05:41:57;101558.63;;;7.46;82.48
4705;BME280;2366;51.332;6.610;2022-12-07T05:44:39;101555.91;;;7.49;82.89
4705;BME280;2366;51.332;6.610;2022-12-07T05:47:04;101562.88;;;7.50;82.52
4705;BME280;2366;51.332;6.610;2022-12-07T05:49:30;101541.84;;;7.48;82.00
4705;BME280;2366;51.332;6.610;2022-12-07T05:51:55;101542.97;;;7.41;82.28
4705;BME280;2366;51.332;6.610;2022-12-07T05:54:20;101550.94;;;7.39;82.01
4705;BME280;2366;51.332;6.610;2022-12-07T05:56:46;101548.41;;;7.36;81.92
4705;BME280;2366;51.332;6.610;2022-12-07T05:59:11;101535.25;;;7.35;81.78
4705;BME280;2366;51.332;6.610;2022-12-07T06:02:03;101549.34;;;7.35;82.33
4705;BME280;2366;51.332;6.610;2022-12-07T06:04:32;101553.69;;;7.36;82.44
4705;BME280;2366;51.332;6.610;2022-12-07T06:06:57;101551.88;;;7.37;82.58
4705;BME280;2366;51.332;6.610;2022-12-07T06:09:24;101551.81;;;7.40;82.30
4705;BME280;2366;51.332;6.610;2022-12-07T06:11:50;101550.88;;;7.41;82.30
4705;BME280;2366;51.332;6.610;2022-12-07T06:14:34;101549.09;;;7.41;81.94
4705;BME280;2366;51.332;6.610;2022-12-07T06:16:59;101547.34;;;7.42;82.30
4705;BME280;2366;51.332;6.610;2022-12-07T06:19:25;101551.72;;;7.41;82.13
4705;BME280;2366;51.332;6.610;2022-12-07T06:21:51;101549.16;;;7.40;81.58
4705;BME280;2366;51.332;6.610;2022-12-07T06:24:17;101557.09;;;7.40;81.44
4705;BME280;2366;51.332;6.610;2022-12-07T06:26:43;101560.53;;;7.42;81.97
4705;BME280;2366;51.332;6.610;2022-12-07T06:29:09;101558.88;;;7.39;82.03
4705;BME280;2366;51.332;6.610;2022-12-07T06:31:35;101558.06;;;7.37;81.92
4705;BME280;2366;51.332;6.610;2022-12-07T06:34:06;101553.72;;;7.35;81.53
4705;BME280;2366;51.332;6.610;2022-12-07T06:36:32;101552.06;;;7.32;81.68
4705;BME280;2366;51.332;6.610;2022-12-07T06:38:58;101551.25;;;7.30;82.32
4705;BME280;2366;51.332;6.610;2022-12-07T06:41:23;101553.88;;;7.30;81.99
4705;BME280;2366;51.332;6.610;2022-12-07T06:43:49;101553.06;;;7.28;81.17
4705;BME280;2366;51.332;6.610;2022-12-07T06:46:15;101553.88;;;7.30;81.69
4705;BME280;2366;51.332;6.610;2022-12-07T06:48:42;101558.34;;;7.28;82.27
4705;BME280;2366;51.332;6.610;2022-12-07T06:51:08;101562.00;;;7.24;81.91
4705;BME280;2366;51.332;6.610;2022-12-07T06:53:33;101562.13;;;7.21;82.37
4705;BME280;2366;51.332;6.610;2022-12-07T06:55:59;101556.97;;;7.18;81.58
4705;BME280;2366;51.332;6.610;2022-12-07T06:58:24;101561.78;;;7.05;81.22
4705;BME280;2366;51.332;6.610;2022-12-07T07:00:50;101565.47;;;6.99;81.62
4705;BME280;2366;51.332;6.610;2022-12-07T07:03:15;101559.19;;;7.04;81.82
4705;BME280;2366;51.332;6.610;2022-12-07T07:05:42;101565.88;;;7.14;82.15
4705;BME280;2366;51.332;6.610;2022-12-07T07:08:07;101568.53;;;7.14;81.82
4705;BME280;2366;51.332;6.610;2022-12-07T07:10:33;101565.38;;;7.03;81.28
4705;BME280;2366;51.332;6.610;2022-12-07T07:12:59;101558.72;;;6.91;80.68
4705;BME280;2366;51.332;6.610;2022-12-07T07:15:24;101552.25;;;6.74;80.51
4705;BME280;2366;51.332;6.610;2022-12-07T07:17:49;101556.16;;;6.61;81.02
4705;BME280;2366;51.332;6.610;2022-12-07T07:20:15;101558.31;;;6.48;80.86
4705;BME280;2366;51.332;6.610;2022-12-07T07:22:40;101556.06;;;6.36;80.81
4705;BME280;2366;51.332;6.610;2022-12-07T07:25:06;101558.88;;;6.30;80.60
4705;BME280;2366;51.332;6.610;2022-12-07T07:27:31;101559.06;;;6.24;80.86
4705;BME280;2366;51.332;6.610;2022-12-07T07:29:57;101559.22;;;6.17;81.29
4705;BME280;2366;51.332;6.610;2022-12-07T07:32:22;101567.19;;;6.16;81.43
4705;BME280;2366;51.332;6.610;2022-12-07T07:34:48;101569.88;;;6.14;81.21
4705;BME280;2366;51.332;6.610;2022-12-07T07:37:13;101558.50;;;6.12;81.66
4705;BME280;2366;51.332;6.610;2022-12-07T07:39:39;101573.50;;;6.10;81.58
4705;BME280;2366;51.332;6.610;2022-12-07T07:42:04;101580.31;;;6.17;81.90
4705;BME280;2366;51.332;6.610;2022-12-07T07:44:30;101571.19;;;6.29;82.77
4705;BME280;2366;51.332;6.610;2022-12-07T07:46:56;101569.75;;;6.47;82.83
4705;BME280;2366;51.332;6.610;2022-12-07T07:49:21;101574.56;;;6.63;82.38
4705;BME280;2366;51.332;6.610;2022-12-07T07:51:46;101574.38;;;6.69;82.58
4705;BME280;2366;51.332;6.610;2022-12-07T07:54:12;101570.91;;;6.67;81.90
4705;BME280;2366;51.332;6.610;2022-12-07T07:56:37;101578.13;;;6.62;81.86
4705;BME280;2366;51.332;6.610;2022-12-07T07:59:02;101581.75;;;6.57;81.39
4705;BME280;2366;51.332;6.610;2022-12-07T08:01:28;101581.94;;;6.51;81.80
4705;BME280;2366;51.332;6.610;2022-12-07T08:03:53;101585.47;;;6.50;81.87
4705;BME280;2366;51.332;6.610;2022-12-07T08:06:18;101577.63;;;6.49;80.98
4705;BME280;2366;51.332;6.610;2022-12-07T08:08:44;101589.03;;;6.49;81.38
4705;BME280;2366;51.332;6.610;2022-12-07T08:11:09;101582.78;;;6.52;81.25
4705;BME280;2366;51.332;6.610;2022-12-07T08:13:35;101590.72;;;6.50;81.27
4705;BME280;2366;51.332;6.610;2022-12-07T08:16:05;101584.59;;;6.50;81.20
4705;BME280;2366;51.332;6.610;2022-12-07T08:18:35;101592.19;;;6.61;81.48
4705;BME280;2366;51.332;6.610;2022-12-07T08:21:01;101595.34;;;6.72;81.61
4705;BME280;2366;51.332;6.610;2022-12-07T08:23:27;101593.91;;;6.90;81.46
4705;BME280;2366;51.332;6.610;2022-12-07T08:25:53;101596.88;;;7.07;81.04
4705;BME280;2366;51.332;6.610;2022-12-07T08:28:18;101598.94;;;7.24;80.67
4705;BME280;2366;51.332;6.610;2022-12-07T08:30:43;101601.84;;;7.41;80.18
4705;BME280;2366;51.332;6.610;2022-12-07T08:33:10;101596.81;;;7.35;79.99
4705;BME280;2366;51.332;6.610;2022-12-07T08:35:35;101601.72;;;7.46;79.43
4705;BME280;2366;51.332;6.610;2022-12-07T08:38:01;101603.56;;;8.18;78.39
4705;BME280;2366;51.332;6.610;2022-12-07T08:40:27;101597.84;;;7.81;77.15
4705;BME280;2366;51.332;6.610;2022-12-07T08:42:53;101595.84;;;7.63;78.09
4705;BME280;2366;51.332;6.610;2022-12-07T08:45:20;101596.16;;;7.54;78.37
4705;BME280;2366;51.332;6.610;2022-12-07T08:47:52;101592.00;;;7.97;79.20
4705;BME280;2366;51.332;6.610;2022-12-07T08:50:19;101597.19;;;9.76;76.42
4705;BME280;2366;51.332;6.610;2022-12-07T08:52:48;101599.19;;;11.23;72.50
4705;BME280;2366;51.332;6.610;2022-12-07T08:55:15;101601.31;;;11.34;69.70
4705;BME280;2366;51.332;6.610;2022-12-07T08:57:41;101600.91;;;11.59;69.38
4705;BME280;2366;51.332;6.610;2022-12-07T09:00:08;101583.59;;;12.02;67.39
4705;BME280;2366;51.332;6.610;2022-12-07T09:02:34;101585.72;;;10.91;67.37
4705;BME280;2366;51.332;6.610;2022-12-07T09:05:00;101586.78;;;10.32;70.20
4705;BME280;2366;51.332;6.610;2022-12-07T09:07:25;101582.41;;;9.91;70.43
4705;BME280;2366;51.332;6.610;2022-12-07T09:09:51;101585.81;;;9.54;71.88
4705;BME280;2366;51.332;6.610;2022-12-07T09:12:16;101582.47;;;9.28;73.12
4705;BME280;2366;51.332;6.610;2022-12-07T09:14:42;101582.50;;;9.06;73.28
4705;BME280;2366;51.332;6.610;2022-12-07T09:17:10;101586.16;;;9.03;73.56
4705;BME280;2366;51.332;6.610;2022-12-07T09:19:36;101587.63;;;8.67;74.46
4705;BME280;2366;51.332;6.610;2022-12-07T09:22:02;101595.50;;;8.46;75.40
4705;BME280;2366;51.332;6.610;2022-12-07T09:24:27;101592.63;;;8.52;76.18
4705;BME280;2366;51.332;6.610;2022-12-07T09:26:53;101591.28;;;8.86;76.44
4705;BME280;2366;51.332;6.610;2022-12-07T09:29:18;101594.06;;;9.25;75.96
4705;BME280;2366;51.332;6.610;2022-12-07T09:31:43;101592.34;;;9.45;75.25
4705;BME280;2366;51.332;6.610;2022-12-07T09:34:09;101598.84;;;9.58;74.12
4705;BME280;2366;51.332;6.610;2022-12-07T09:36:34;101596.50;;;9.30;72.68
4705;BME280;2366;51.332;6.610;2022-12-07T09:39:00;101600.22;;;9.26;73.51
4705;BME280;2366;51.332;6.610;2022-12-07T09:41:27;101594.50;;;9.15;73.45
4705;BME280;2366;51.332;6.610;2022-12-07T09:44:00;101597.88;;;8.98;73.23
4705;BME280;2366;51.332;6.610;2022-12-07T09:46:28;101588.94;;;8.78;73.57
4705;BME280;2366;51.332;6.610;2022-12-07T09:48:58;101590.41;;;8.63;73.72
4705;BME280;2366;51.332;6.610;2022-12-07T09:51:24;101585.38;;;8.57;74.40
4705;BME280;2366;51.332;6.610;2022-12-07T09:53:50;101591.00;;;8.48;74.53
4705;BME280;2366;51.332;6.610;2022-12-07T09:56:18;101590.13;;;8.48;74.88
4705;BME280;2366;51.332;6.610;2022-12-07T09:58:44;101590.06;;;8.49;74.85
4705;BME280;2366;51.332;6.610;2022-12-07T10:01:16;101586.41;;;8.53;74.70
4705;BME280;2366;51.332;6.610;2022-12-07T10:03:50;101597.53;;;8.61;74.81
4705;BME280;2366;51.332;6.610;2022-12-07T10:06:16;101591.22;;;8.66;74.75
4705;BME280;2366;51.332;6.610;2022-12-07T10:08:41;101595.69;;;8.63;74.37
4705;BME280;2366;51.332;6.610;2022-12-07T10:11:09;101585.59;;;8.51;74.39
4705;BME280;2366;51.332;6.610;2022-12-07T10:13:44;101581.41;;;8.46;74.41
4705;BME280;2366;51.332;6.610;2022-12-07T10:18:48;101582.34;;;8.19;75.17
4705;BME280;2366;51.332;6.610;2022-12-07T10:24:04;101573.47;;;8.22;74.73
4705;BME280;2366;51.332;6.610;2022-12-07T10:26:59;101576.94;;;8.24;74.96
4705;BME280;2366;51.332;6.610;2022-12-07T10:32:02;101570.16;;;8.39;75.23
4705;BME280;2366;51.332;6.610;2022-12-07T10:34:34;101567.22;;;8.48;74.51
4705;BME280;2366;51.332;6.610;2022-12-07T10:39:50;101562.25;;;8.62;74.20
4705;BME280;2366;51.332;6.610;2022-12-07T10:44:48;101556.03;;;8.63;73.96
4705;BME280;2366;51.332;6.610;2022-12-07T10:47:22;101548.78;;;8.69;74.20
4705;BME280;2366;51.332;6.610;2022-12-07T10:50:12;101540.66;;;8.73;74.04
4705;BME280;2366;51.332;6.610;2022-12-07T11:01:25;101534.50;;;8.73;73.69
4705;BME280;2366;51.332;6.610;2022-12-07T11:07:19;101532.69;;;8.95;73.54
4705;BME280;2366;51.332;6.610;2022-12-07T11:09:56;101525.09;;;8.88;71.48
4705;BME280;2366;51.332;6.610;2022-12-07T11:12:50;101532.94;;;9.11;72.22
4705;BME280;2366;51.332;6.610;2022-12-07T11:15:33;101534.47;;;9.37;72.33
4705;BME280;2366;51.332;6.610;2022-12-07T11:18:14;101527.97;;;9.65;71.40
4705;BME280;2366;51.332;6.610;2022-12-07T11:21:03;101526.91;;;9.88;71.26
4705;BME280;2366;51.332;6.610;2022-12-07T11:28:57;101510.13;;;10.46;69.02
4705;BME280;2366;51.332;6.610;2022-12-07T11:34:31;101506.88;;;10.20;68.87
4705;BME280;2366;51.332;6.610;2022-12-07T11:37:03;101503.22;;;10.23;68.66
4705;BME280;2366;51.332;6.610;2022-12-07T11:39:54;101497.31;;;10.37;68.61
4705;BME280;2366;51.332;6.610;2022-12-07T11:42:22;101497.91;;;10.61;68.88
4705;BME280;2366;51.332;6.610;2022-12-07T11:47:51;101484.44;;;11.00;67.41
4705;BME280;2366;51.332;6.610;2022-12-07T11:50:38;101489.97;;;11.13;66.29
4705;BME280;2366;51.332;6.610;2022-12-07T11:55:55;101485.34;;;11.34;65.88
4705;BME280;2366;51.332;6.610;2022-12-07T12:03:49;101484.59;;;11.32;65.14
4705;BME280;2366;51.332;6.610;2022-12-07T12:06:16;101479.56;;;11.43;65.33
4705;BME280;2366;51.332;6.610;2022-12-07T12:08:54;101481.50;;;11.40;64.32
4705;BME280;2366;51.332;6.610;2022-12-07T12:20:01;101469.97;;;10.71;65.38
4705;BME280;2366;51.332;6.610;2022-12-07T12:22:39;101471.09;;;10.67;65.29
4705;BME280;2366;51.332;6.610;2022-12-07T12:25:11;101477.38;;;10.64;65.02
4705;BME280;2366;51.332;6.610;2022-12-07T12:27:39;101463.19;;;10.65;65.80
4705;BME280;2366;51.332;6.610;2022-12-07T12:30:07;101464.09;;;10.47;65.53
4705;BME280;2366;51.332;6.610;2022-12-07T12:32:48;101459.75;;;10.46;65.59
4705;BME280;2366;51.332;6.610;2022-12-07T12:35:35;101456.38;;;10.42;64.71
4705;BME280;2366;51.332;6.610;2022-12-07T12:38:27;101455.97;;;10.33;65.72
4705;BME280;2366;51.332;6.610;2022-12-07T12:40:54;101451.38;;;10.36;65.76
4705;BME280;2366;51.332;6.610;2022-12-07T12:43:45;101447.88;;;10.53;65.78
4705;BME280;2366;51.332;6.610;2022-12-07T12:46:47;101442.91;;;10.64;65.16
4705;BME280;2366;51.332;6.610;2022-12-07T12:51:47;101437.16;;;10.74;64.55
4705;BME280;2366;51.332;6.610;2022-12-07T12:54:22;101435.28;;;10.76;64.26
4705;BME280;2366;51.332;6.610;2022-12-07T12:59:24;101433.53;;;10.57;64.07
4705;BME280;2366;51.332;6.610;2022-12-07T13:01:53;101430.28;;;10.52;64.04
4705;BME280;2366;51.332;6.610;2022-12-07T13:04:30;101430.34;;;10.51;64.27
4705;BME280;2366;51.332;6.610;2022-12-07T13:06:59;101435.28;;;10.58;64.58
4705;BME280;2366;51.332;6.610;2022-12-07T13:09:30;101431.84;;;10.56;64.28
4705;BME280;2366;51.332;6.610;2022-12-07T13:12:02;101426.34;;;10.42;63.76
4705;BME280;2366;51.332;6.610;2022-12-07T13:14:42;101418.78;;;10.34;64.15
4705;BME280;2366;51.332;6.610;2022-12-07T13:19:59;101423.03;;;10.19;64.31
4705;BME280;2366;51.332;6.610;2022-12-07T13:25:31;101413.84;;;10.26;63.03
4705;BME280;2366;51.332;6.610;2022-12-07T13:28:16;101403.34;;;10.23;63.93
4705;BME280;2366;51.332;6.610;2022-12-07T13:31:32;101410.97;;;10.31;64.26
4705;BME280;2366;51.332;6.610;2022-12-07T13:33:34;101404.97;;;10.45;64.35
4705;BME280;2366;51.332;6.610;2022-12-07T13:35:59;101399.06;;;10.57;63.66
4705;BME280;2366;51.332;6.610;2022-12-07T13:38:29;101405.34;;;10.56;63.07
4705;BME280;2366;51.332;6.610;2022-12-07T13:41:13;101405.16;;;10.42;61.64
4705;BME280;2366;51.332;6.610;2022-12-07T13:43:43;101404.38;;;10.40;61.73
4705;BME280;2366;51.332;6.610;2022-12-07T13:46:10;101400.63;;;10.44;62.31
4705;BME280;2366;51.332;6.610;2022-12-07T13:48:45;101392.50;;;10.47;62.95
4705;BME280;2366;51.332;6.610;2022-12-07T13:51:23;101389.50;;;10.55;62.68
4705;BME280;2366;51.332;6.610;2022-12-07T13:53:53;101380.50;;;10.57;62.87
4705;BME280;2366;51.332;6.610;2022-12-07T13:56:21;101385.66;;;10.60;62.95
4705;BME280;2366;51.332;6.610;2022-12-07T13:58:47;101376.94;;;10.58;63.40
4705;BME280;2366;51.332;6.610;2022-12-07T14:01:13;101375.75;;;10.46;63.44
4705;BME280;2366;51.332;6.610;2022-12-07T14:03:39;101375.03;;;10.43;63.52
4705;BME280;2366;51.332;6.610;2022-12-07T14:08:30;101377.38;;;10.32;64.10
4705;BME280;2366;51.332;6.610;2022-12-07T14:10:57;101368.72;;;10.28;64.44
4705;BME280;2366;51.332;6.610;2022-12-07T14:15:59;101371.72;;;10.20;64.93
4705;BME280;2366;51.332;6.610;2022-12-07T14:18:41;101365.09;;;10.12;65.00
4705;BME280;2366;51.332;6.610;2022-12-07T14:23:35;101350.16;;;9.92;65.81
4705;BME280;2366;51.332;6.610;2022-12-07T14:26:07;101363.53;;;9.88;66.36
4705;BME280;2366;51.332;6.610;2022-12-07T14:28:37;101361.84;;;9.87;66.30
4705;BME280;2366;51.332;6.610;2022-12-07T14:31:10;101355.19;;;9.79;66.65
4705;BME280;2366;51.332;6.610;2022-12-07T14:33:36;101351.75;;;9.77;66.81
4705;BME280;2366;51.332;6.610;2022-12-07T14:36:02;101346.47;;;9.77;67.03
4705;BME280;2366;51.332;6.610;2022-12-07T14:38:27;101340.22;;;9.78;67.07
4705;BME280;2366;51.332;6.610;2022-12-07T14:40:53;101343.88;;;9.75;67.02
4705;BME280;2366;51.332;6.610;2022-12-07T14:43:19;101332.72;;;9.69;67.03
4705;BME280;2366;51.332;6.610;2022-12-07T14:45:45;101332.16;;;9.62;67.19
4705;BME280;2366;51.332;6.610;2022-12-07T14:48:13;101327.16;;;9.56;67.36
4705;BME280;2366;51.332;6.610;2022-12-07T14:50:42;101324.72;;;9.51;67.66
4705;BME280;2366;51.332;6.610;2022-12-07T14:53:14;101322.47;;;9.43;67.89
4705;BME280;2366;51.332;6.610;2022-12-07T14:55:41;101324.09;;;9.46;68.37
4705;BME280;2366;51.332;6.610;2022-12-07T14:58:19;101326.47;;;9.52;68.25
4705;BME280;2366;51.332;6.610;2022-12-07T15:00:45;101325.28;;;9.58;68.38
4705;BME280;2366;51.332;6.610;2022-12-07T15:03:10;101326.56;;;9.68;68.18
4705;BME280;2366;51.332;6.610;2022-12-07T15:05:38;101322.56;;;9.78;68.12
4705;BME280;2366;51.332;6.610;2022-12-07T15:08:03;101317.25;;;9.78;67.31
4705;BME280;2366;51.332;6.610;2022-12-07T15:10:32;101316.25;;;9.81;67.70
4705;BME280;2366;51.332;6.610;2022-12-07T15:13:01;101319.75;;;9.81;67.23